Time;durP1;ratioP1;P1;durP2;ratioP2;P2;SDS_P1;SDS_P2;PMS_P1;PMS_P2;Temp;Humidity;BMP_temperature;BMP_pressure;BME280_temperature;BME280_humidity;BME280_pressure;Samples;Min_cycle;Max_cycle;Signal;HPM_P1;HPM_P2
2023/03/25 00:00:56;;;;;;;0.90;0.67;;;;;;;;;;5038907;28;20210;-38
2023/03/25 00:03:25;;;;;;;0.90;0.77;;;;;;;;;;5038776;28;20257;-33
2023/03/25 00:05:52;;;;;;;2.20;0.60;;;;;;;;;;5040533;28;20213;-35
2023/03/25 00:08:19;;;;;;;1.50;0.80;;;;;;;;;;5030069;28;20286;-36
2023/03/25 00:10:46;;;;;;;1.73;0.67;;;;;;;;;;5038462;28;20197;-35
2023/03/25 00:13:14;;;;;;;0.60;0.57;;;;;;;;;;5043511;28;20286;-35
2023/03/25 00:15:44;;;;;;;0.43;0.43;;;;;;;;;;5036740;28;20297;-35
2023/03/25 00:18:12;;;;;;;0.97;0.60;;;;;;;;;;5046604;28;20237;-33
2023/03/25 00:20:40;;;;;;;2.67;0.50;;;;;;;;;;5030444;28;20228;-33
2023/03/25 00:23:07;;;;;;;1.00;0.70;;;;;;;;;;5027593;28;20245;-41
2023/03/25 00:25:35;;;;;;;1.80;0.50;;;;;;;;;;5035492;28;20213;-39
2023/03/25 00:28:02;;;;;;;1.63;0.70;;;;;;;;;;5048610;28;20190;-35
2023/03/25 00:30:29;;;;;;;0.47;0.47;;;;;;;;;;5038096;28;20288;-35
2023/03/25 00:33:00;;;;;;;1.00;0.50;;;;;;;;;;5039063;28;20219;-35
2023/03/25 00:35:27;;;;;;;0.53;0.53;;;;;;;;;;5040334;28;20190;-34
2023/03/25 00:37:58;;;;;;;0.40;0.40;;;;;;;;;;5029152;28;20282;-35
2023/03/25 00:40:27;;;;;;;0.50;0.50;;;;;;;;;;5029775;28;20221;-32
2023/03/25 00:42:54;;;;;;;1.40;0.40;;;;;;;;;;5043940;28;20222;-31
2023/03/25 00:45:21;;;;;;;1.13;0.40;;;;;;;;;;5038489;28;20551;-39
2023/03/25 00:47:48;;;;;;;0.30;0.23;;;;;;;;;;5044665;28;20208;-32
2023/03/25 00:50:15;;;;;;;0.40;0.40;;;;;;;;;;5051936;28;20190;-38
2023/03/25 00:52:43;;;;;;;0.23;0.23;;;;;;;;;;5048087;28;20226;-34
2023/03/25 00:55:11;;;;;;;0.30;0.30;;;;;;;;;;5037475;28;20197;-34
2023/03/25 00:57:38;;;;;;;1.07;0.50;;;;;;;;;;5038546;28;20198;-30
2023/03/25 01:00:07;;;;;;;0.40;0.40;;;;;;;;;;5030570;28;20213;-39
2023/03/25 01:02:34;;;;;;;0.73;0.40;;;;;;;;;;5037872;28;20230;-33
2023/03/25 01:05:01;;;;;;;1.40;0.43;;;;;;;;;;5036800;28;20297;-34
2023/03/25 01:07:30;;;;;;;0.93;0.40;;;;;;;;;;5049210;28;20202;-37
2023/03/25 01:09:57;;;;;;;0.83;0.40;;;;;;;;;;5038001;28;20253;-31
2023/03/25 01:12:26;;;;;;;0.27;0.20;;;;;;;;;;5044650;28;20225;-39
2023/03/25 01:14:54;;;;;;;0.53;0.40;;;;;;;;;;5036883;28;20209;-33
2023/03/25 01:17:21;;;;;;;1.67;0.33;;;;;;;;;;5044888;28;20268;-33
2023/03/25 01:19:48;;;;;;;0.57;0.50;;;;;;;;;;5050106;28;20206;-35
2023/03/25 01:22:16;;;;;;;0.90;0.50;;;;;;;;;;5043995;28;20202;-38
2023/03/25 01:24:43;;;;;;;0.97;0.40;;;;;;;;;;5034769;28;20213;-31
2023/03/25 01:27:10;;;;;;;0.50;0.50;;;;;;;;;;5050578;28;20190;-34
2023/03/25 01:29:39;;;;;;;2.17;0.70;;;;;;;;;;5048113;28;20206;-36
2023/03/25 01:32:06;;;;;;;1.60;0.70;;;;;;;;;;5043576;28;20198;-34
2023/03/25 01:34:37;;;;;;;2.17;0.67;;;;;;;;;;5042997;28;20545;-33
2023/03/25 01:39:33;;;;;;;0.60;0.60;;;;;;;;;;5040160;28;20276;-37
2023/03/25 01:42:00;;;;;;;1.43;0.40;;;;;;;;;;5048018;28;20198;-36
2023/03/25 01:44:46;;;;;;;0.90;0.70;;;;;;;;;;5028098;28;20239;-30
2023/03/25 01:47:15;;;;;;;1.30;0.43;;;;;;;;;;5025008;28;20210;-33
2023/03/25 01:49:44;;;;;;;1.23;0.70;;;;;;;;;;5036095;28;20293;-33
2023/03/25 01:52:13;;;;;;;0.50;0.50;;;;;;;;;;5027988;28;20303;-32
2023/03/25 01:54:41;;;;;;;1.27;0.70;;;;;;;;;;5024419;28;20213;-38
2023/03/25 01:57:09;;;;;;;0.53;0.30;;;;;;;;;;5027038;28;20232;-34
2023/03/25 01:59:36;;;;;;;0.60;0.40;;;;;;;;;;5030371;28;20245;-30
2023/03/25 02:02:05;;;;;;;0.93;0.47;;;;;;;;;;5017243;28;20199;-35
2023/03/25 02:04:38;;;;;;;0.40;0.30;;;;;;;;;;5038300;28;20209;-32
2023/03/25 02:07:07;;;;;;;0.60;0.40;;;;;;;;;;5033597;28;20203;-32
2023/03/25 02:09:34;;;;;;;0.50;0.50;;;;;;;;;;5028769;28;20242;-32
2023/03/25 02:12:02;;;;;;;1.73;0.50;;;;;;;;;;5028968;28;20214;-33
2023/03/25 02:14:30;;;;;;;0.50;0.50;;;;;;;;;;5038267;28;20222;-34
2023/03/25 02:17:01;;;;;;;0.73;0.40;;;;;;;;;;5031699;28;20199;-30
2023/03/25 02:19:46;;;;;;;1.13;0.70;;;;;;;;;;5039011;28;20206;-29
2023/03/25 02:22:48;;;;;;;0.50;0.50;;;;;;;;;;5030926;28;20199;-34
2023/03/25 02:25:38;;;;;;;0.67;0.63;;;;;;;;;;4960721;28;20211;-34
2023/03/25 02:28:10;;;;;;;0.50;0.50;;;;;;;;;;4973908;28;20196;-35
2023/03/25 02:30:55;;;;;;;1.37;0.50;;;;;;;;;;5006612;28;20217;-35
2023/03/25 02:33:34;;;;;;;1.13;0.43;;;;;;;;;;5047764;28;20225;-34
2023/03/25 02:36:15;;;;;;;0.20;0.20;;;;;;;;;;5043776;28;20210;-36
2023/03/25 02:38:46;;;;;;;1.13;0.30;;;;;;;;;;5007251;28;20218;-36
2023/03/25 02:41:16;;;;;;;0.77;0.37;;;;;;;;;;5041799;28;20221;-35
2023/03/25 02:43:46;;;;;;;1.03;0.50;;;;;;;;;;5051843;28;20308;-31
2023/03/25 02:46:16;;;;;;;0.77;0.50;;;;;;;;;;5020667;28;20389;-36
2023/03/25 02:48:45;;;;;;;0.70;0.53;;;;;;;;;;5041863;28;20208;-34
2023/03/25 02:51:15;;;;;;;2.13;0.30;;;;;;;;;;5052374;28;20204;-31
2023/03/25 02:53:44;;;;;;;0.70;0.40;;;;;;;;;;5031254;28;20219;-33
2023/03/25 02:56:15;;;;;;;0.43;0.20;;;;;;;;;;5031880;28;20202;-32
2023/03/25 02:58:44;;;;;;;0.60;0.37;;;;;;;;;;5036080;28;20203;-37
2023/03/25 03:01:13;;;;;;;0.53;0.33;;;;;;;;;;5025226;28;20325;-34
2023/03/25 03:03:40;;;;;;;0.30;0.30;;;;;;;;;;5049125;28;20222;-35
2023/03/25 03:06:08;;;;;;;0.80;0.50;;;;;;;;;;5042339;28;20199;-35
2023/03/25 03:08:51;;;;;;;0.37;0.30;;;;;;;;;;5026845;28;20207;-34
2023/03/25 03:11:21;;;;;;;0.93;0.50;;;;;;;;;;5025973;28;20199;-34
2023/03/25 03:13:56;;;;;;;0.50;0.50;;;;;;;;;;5022089;28;20225;-33
2023/03/25 03:16:29;;;;;;;0.30;0.30;;;;;;;;;;5033227;28;20268;-34
2023/03/25 03:19:01;;;;;;;1.07;0.40;;;;;;;;;;5045097;28;20191;-31
2023/03/25 03:21:32;;;;;;;0.40;0.30;;;;;;;;;;5030670;28;20222;-34
2023/03/25 03:24:02;;;;;;;1.83;0.40;;;;;;;;;;5027589;28;20240;-33
2023/03/25 03:26:36;;;;;;;0.27;0.27;;;;;;;;;;5025393;28;20330;-33
2023/03/25 03:29:08;;;;;;;0.27;0.27;;;;;;;;;;5038838;28;20225;-30
2023/03/25 03:31:36;;;;;;;2.53;0.50;;;;;;;;;;5025844;28;20207;-35
2023/03/25 03:34:05;;;;;;;1.30;0.40;;;;;;;;;;5043958;28;20218;-29
2023/03/25 03:36:34;;;;;;;0.20;0.20;;;;;;;;;;5029756;28;20201;-33
2023/03/25 03:39:04;;;;;;;0.33;0.30;;;;;;;;;;5019214;28;20574;-36
2023/03/25 03:41:34;;;;;;;0.30;0.30;;;;;;;;;;5039074;28;20258;-33
2023/03/25 03:44:04;;;;;;;0.53;0.40;;;;;;;;;;5045957;28;20240;-35
2023/03/25 03:46:34;;;;;;;0.30;0.30;;;;;;;;;;5015059;28;20204;-33
2023/03/25 03:49:02;;;;;;;0.20;0.20;;;;;;;;;;5041076;28;20259;-36
2023/03/25 03:51:31;;;;;;;0.37;0.37;;;;;;;;;;5050053;28;20217;-36
2023/03/25 03:54:00;;;;;;;0.27;0.27;;;;;;;;;;5046821;28;20229;-37
2023/03/25 03:56:35;;;;;;;0.83;0.30;;;;;;;;;;5021488;28;20200;-36
2023/03/25 04:09:26;;;;;;;1.03;0.20;;;;;;;;;;5033995;28;20215;-28
2023/03/25 04:11:55;;;;;;;0.83;0.30;;;;;;;;;;5035196;28;20206;-29
2023/03/25 04:14:22;;;;;;;0.20;0.20;;;;;;;;;;5029735;28;20226;-29
2023/03/25 04:16:51;;;;;;;0.20;0.20;;;;;;;;;;5020313;28;20206;-27
2023/03/25 04:19:19;;;;;;;0.50;0.40;;;;;;;;;;5044529;28;20216;-27
2023/03/25 04:21:47;;;;;;;0.20;0.20;;;;;;;;;;5049100;28;20224;-25
2023/03/25 04:24:18;;;;;;;0.43;0.17;;;;;;;;;;5037354;28;20223;-28
2023/03/25 04:26:48;;;;;;;1.07;0.50;;;;;;;;;;5023935;28;20203;-25
2023/03/25 04:29:15;;;;;;;0.93;0.30;;;;;;;;;;5024246;28;20234;-29
2023/03/25 04:31:44;;;;;;;0.80;0.40;;;;;;;;;;5022635;28;20199;-27
2023/03/25 04:34:13;;;;;;;2.10;0.40;;;;;;;;;;5041723;28;20272;-25
2023/03/25 04:36:41;;;;;;;0.37;0.30;;;;;;;;;;5028487;28;20290;-29
2023/03/25 04:39:09;;;;;;;0.57;0.57;;;;;;;;;;5018944;28;20211;-26
2023/03/25 04:41:36;;;;;;;0.23;0.23;;;;;;;;;;5036697;28;20232;-27
2023/03/25 04:44:08;;;;;;;0.43;0.30;;;;;;;;;;5025640;28;20233;-26
2023/03/25 04:46:36;;;;;;;0.70;0.30;;;;;;;;;;5017190;28;20246;-26
2023/03/25 04:49:04;;;;;;;0.20;0.20;;;;;;;;;;5042728;28;20206;-25
2023/03/25 04:51:32;;;;;;;0.97;0.30;;;;;;;;;;5028276;28;20215;-27
2023/03/25 04:53:59;;;;;;;1.07;0.50;;;;;;;;;;5025058;28;20222;-28
2023/03/25 04:56:27;;;;;;;1.37;0.50;;;;;;;;;;5015757;28;20213;-26
2023/03/25 04:58:54;;;;;;;2.13;0.50;;;;;;;;;;5030768;28;20293;-26
2023/03/25 05:01:29;;;;;;;0.67;0.67;;;;;;;;;;5021418;28;20231;-28
2023/03/25 05:04:03;;;;;;;0.80;0.40;;;;;;;;;;5025785;28;20347;-27
2023/03/25 05:06:31;;;;;;;0.20;0.20;;;;;;;;;;5040187;28;20203;-28
2023/03/25 05:09:00;;;;;;;0.20;0.20;;;;;;;;;;5013606;28;20275;-26
2023/03/25 05:11:27;;;;;;;0.60;0.30;;;;;;;;;;5033864;28;20226;-28
2023/03/25 05:13:54;;;;;;;1.17;0.40;;;;;;;;;;5046349;28;20230;-27
2023/03/25 05:16:23;;;;;;;0.47;0.47;;;;;;;;;;5021016;28;20210;-27
2023/03/25 05:18:50;;;;;;;1.50;0.50;;;;;;;;;;5036361;28;20317;-26
2023/03/25 05:21:17;;;;;;;0.87;0.40;;;;;;;;;;5028613;28;20228;-28
2023/03/25 05:23:45;;;;;;;0.83;0.43;;;;;;;;;;5021093;28;20276;-29
2023/03/25 05:26:13;;;;;;;0.57;0.40;;;;;;;;;;5026924;28;20262;-29
2023/03/25 05:28:40;;;;;;;0.77;0.40;;;;;;;;;;5038481;28;20198;-29
2023/03/25 05:31:08;;;;;;;1.40;0.30;;;;;;;;;;5019138;28;20199;-27
2023/03/25 05:33:41;;;;;;;4.10;0.60;;;;;;;;;;5030029;28;20280;-27
2023/03/25 05:36:09;;;;;;;0.20;0.20;;;;;;;;;;5031623;28;20199;-28
2023/03/25 05:38:36;;;;;;;0.70;0.40;;;;;;;;;;5027868;28;20209;-27
2023/03/25 05:41:04;;;;;;;2.03;0.50;;;;;;;;;;5025985;28;20222;-27
2023/03/25 05:43:34;;;;;;;0.20;0.20;;;;;;;;;;5031766;28;20223;-28
2023/03/25 05:46:03;;;;;;;1.23;0.53;;;;;;;;;;5015397;28;20218;-27
2023/03/25 05:48:31;;;;;;;1.63;0.70;;;;;;;;;;5048378;28;20198;-29
2023/03/25 05:51:01;;;;;;;2.10;0.50;;;;;;;;;;5034654;28;20633;-29
2023/03/25 05:53:29;;;;;;;0.30;0.30;;;;;;;;;;5031611;28;20225;-28
2023/03/25 05:55:57;;;;;;;0.97;0.50;;;;;;;;;;5047895;28;20202;-28
2023/03/25 05:58:25;;;;;;;1.77;0.70;;;;;;;;;;5036147;28;20281;-25
2023/03/25 06:00:53;;;;;;;0.50;0.50;;;;;;;;;;5029793;28;20210;-29
2023/03/25 06:03:20;;;;;;;0.97;0.53;;;;;;;;;;5040428;28;20304;-27
2023/03/25 06:05:47;;;;;;;0.77;0.70;;;;;;;;;;5033532;28;20205;-27
2023/03/25 06:08:16;;;;;;;4.50;0.80;;;;;;;;;;5013582;28;20211;-27
2023/03/25 06:10:44;;;;;;;0.63;0.53;;;;;;;;;;5027210;28;20211;-25
2023/03/25 06:13:11;;;;;;;1.97;0.63;;;;;;;;;;5042181;28;20218;-26
2023/03/25 06:15:40;;;;;;;1.63;0.60;;;;;;;;;;5024117;28;20198;-28
2023/03/25 06:18:09;;;;;;;0.57;0.40;;;;;;;;;;5013318;28;20209;-31
2023/03/25 06:20:37;;;;;;;1.23;0.40;;;;;;;;;;5022824;28;20238;-29
2023/03/25 06:23:06;;;;;;;2.17;0.90;;;;;;;;;;5038010;28;20226;-26
2023/03/25 06:25:35;;;;;;;1.73;0.70;;;;;;;;;;5042142;28;20194;-29
2023/03/25 06:28:02;;;;;;;3.73;1.30;;;;;;;;;;5025213;28;20209;-25
2023/03/25 06:30:30;;;;;;;1.63;0.60;;;;;;;;;;5026938;28;20205;-27
2023/03/25 06:32:58;;;;;;;1.30;0.50;;;;;;;;;;5034068;28;20210;-27
2023/03/25 06:35:25;;;;;;;3.03;0.73;;;;;;;;;;5034114;28;20199;-25
2023/03/25 06:37:52;;;;;;;1.13;0.60;;;;;;;;;;5031387;28;20202;-26
2023/03/25 06:40:21;;;;;;;0.87;0.53;;;;;;;;;;5025799;28;20205;-25
2023/03/25 06:42:49;;;;;;;3.43;0.77;;;;;;;;;;5028696;28;20246;-28
2023/03/25 06:45:17;;;;;;;4.77;0.80;;;;;;;;;;5027954;28;20645;-25
2023/03/25 06:47:44;;;;;;;1.33;0.70;;;;;;;;;;5041552;28;20198;-26
2023/03/25 06:50:11;;;;;;;1.07;0.53;;;;;;;;;;5038194;28;20205;-26
2023/03/25 06:52:39;;;;;;;1.13;0.63;;;;;;;;;;5031128;28;20224;-30
2023/03/25 06:55:06;;;;;;;2.13;0.70;;;;;;;;;;5044808;28;20209;-25
2023/03/25 06:57:33;;;;;;;2.10;0.67;;;;;;;;;;5033022;28;20194;-26
2023/03/25 07:00:02;;;;;;;4.17;0.93;;;;;;;;;;5033809;28;20198;-28
2023/03/25 07:02:29;;;;;;;2.63;0.80;;;;;;;;;;5045977;28;20228;-26
2023/03/25 07:04:57;;;;;;;2.50;0.70;;;;;;;;;;5045927;28;20208;-29
2023/03/25 07:07:24;;;;;;;1.30;0.47;;;;;;;;;;5050200;28;20209;-27
2023/03/25 07:09:53;;;;;;;3.30;0.80;;;;;;;;;;5025204;28;20269;-26
2023/03/25 07:12:21;;;;;;;2.90;0.73;;;;;;;;;;5040929;28;20195;-29
2023/03/25 07:14:51;;;;;;;4.17;0.70;;;;;;;;;;5029202;28;20203;-26
2023/03/25 07:17:19;;;;;;;0.67;0.57;;;;;;;;;;5033257;28;20208;-25
2023/03/25 07:19:46;;;;;;;1.23;0.60;;;;;;;;;;5041069;28;20230;-28
2023/03/25 07:22:14;;;;;;;1.80;0.63;;;;;;;;;;5033152;28;20218;-28
2023/03/25 07:24:41;;;;;;;1.43;0.70;;;;;;;;;;5029757;28;20707;-26
2023/03/25 07:27:10;;;;;;;1.97;0.60;;;;;;;;;;5031254;28;20194;-25
2023/03/25 07:29:37;;;;;;;2.07;0.80;;;;;;;;;;5044554;28;20206;-26
2023/03/25 07:32:05;;;;;;;1.00;0.57;;;;;;;;;;5038782;28;20312;-28
2023/03/25 07:34:33;;;;;;;1.40;0.63;;;;;;;;;;5036445;28;20194;-26
2023/03/25 07:37:01;;;;;;;2.20;0.50;;;;;;;;;;5033248;28;20209;-28
2023/03/25 07:39:28;;;;;;;1.87;0.97;;;;;;;;;;5022482;28;20199;-25
2023/03/25 07:41:55;;;;;;;2.13;0.47;;;;;;;;;;5037051;28;20225;-28
2023/03/25 07:44:22;;;;;;;1.60;0.53;;;;;;;;;;5045054;28;20215;-27
2023/03/25 07:46:49;;;;;;;1.43;0.53;;;;;;;;;;5031943;28;20281;-26
2023/03/25 07:49:17;;;;;;;2.33;0.40;;;;;;;;;;5039907;28;20251;-26
2023/03/25 07:51:46;;;;;;;2.47;0.67;;;;;;;;;;5052319;28;20204;-27
2023/03/25 07:54:13;;;;;;;1.30;0.70;;;;;;;;;;5147355;23;20225;-33
2023/03/25 07:56:40;;;;;;;0.37;0.37;;;;;;;;;;5055019;28;20287;-36
2023/03/25 07:59:08;;;;;;;0.40;0.40;;;;;;;;;;5059021;28;20201;-38
2023/03/25 08:01:35;;;;;;;0.70;0.40;;;;;;;;;;5056258;28;20308;-34
2023/03/25 08:04:02;;;;;;;0.83;0.50;;;;;;;;;;5056088;28;20213;-40
2023/03/25 08:06:30;;;;;;;1.70;0.53;;;;;;;;;;5049870;28;20206;-33
2023/03/25 08:08:58;;;;;;;3.20;0.60;;;;;;;;;;5041901;28;20232;-37
2023/03/25 08:11:25;;;;;;;1.60;0.50;;;;;;;;;;5065752;28;20212;-38
2023/03/25 08:13:52;;;;;;;0.43;0.40;;;;;;;;;;5052484;28;20214;-42
2023/03/25 08:16:20;;;;;;;1.07;0.60;;;;;;;;;;5039600;28;20205;-36
2023/03/25 08:18:47;;;;;;;1.17;0.30;;;;;;;;;;5051509;28;20204;-34
2023/03/25 08:21:14;;;;;;;1.13;0.50;;;;;;;;;;5051003;28;20207;-37
2023/03/25 08:23:43;;;;;;;0.93;0.50;;;;;;;;;;5048112;28;20256;-38
2023/03/25 08:26:11;;;;;;;0.77;0.30;;;;;;;;;;5052269;28;20201;-33
2023/03/25 08:28:39;;;;;;;2.33;0.73;;;;;;;;;;5060325;28;20205;-33
2023/03/25 08:31:08;;;;;;;1.07;0.60;;;;;;;;;;5053134;28;20208;-41
2023/03/25 08:33:39;;;;;;;1.07;0.30;;;;;;;;;;5059881;28;20229;-34
2023/03/25 08:36:08;;;;;;;1.90;0.40;;;;;;;;;;5052283;28;20191;-37
2023/03/25 08:38:35;;;;;;;1.47;0.40;;;;;;;;;;5039058;28;20371;-34
2023/03/25 08:41:03;;;;;;;1.30;0.50;;;;;;;;;;5058380;28;20200;-37
2023/03/25 08:43:31;;;;;;;0.63;0.37;;;;;;;;;;5045765;28;20222;-35
2023/03/25 08:45:58;;;;;;;0.77;0.30;;;;;;;;;;5040451;28;20201;-31
2023/03/25 08:48:25;;;;;;;1.10;0.23;;;;;;;;;;5037695;28;20198;-35
2023/03/25 08:50:53;;;;;;;0.43;0.43;;;;;;;;;;5040413;28;20186;-35
2023/03/25 08:53:20;;;;;;;0.30;0.23;;;;;;;;;;5031384;28;20268;-31
2023/03/25 08:55:47;;;;;;;0.37;0.33;;;;;;;;;;5047181;28;20667;-37
2023/03/25 08:58:14;;;;;;;0.30;0.30;;;;;;;;;;5039778;28;20515;-38
2023/03/25 09:00:43;;;;;;;2.37;0.63;;;;;;;;;;5037065;28;20209;-35
2023/03/25 09:03:10;;;;;;;1.77;0.27;;;;;;;;;;5047226;28;20256;-31
2023/03/25 09:05:37;;;;;;;1.17;0.30;;;;;;;;;;5044942;28;20202;-30
2023/03/25 09:08:05;;;;;;;0.40;0.30;;;;;;;;;;5044627;28;20192;-32
2023/03/25 09:10:32;;;;;;;1.63;0.30;;;;;;;;;;5038114;28;20229;-33
2023/03/25 09:12:59;;;;;;;0.30;0.30;;;;;;;;;;5045962;28;20304;-38
2023/03/25 09:15:27;;;;;;;0.30;0.30;;;;;;;;;;5038719;28;20222;-34
2023/03/25 09:17:55;;;;;;;0.20;0.20;;;;;;;;;;5044969;28;20197;-34
2023/03/25 09:20:22;;;;;;;0.67;0.43;;;;;;;;;;5043477;28;20253;-37
2023/03/25 09:22:50;;;;;;;0.40;0.30;;;;;;;;;;5040765;28;20213;-33
2023/03/25 09:25:17;;;;;;;0.37;0.37;;;;;;;;;;5048712;28;20200;-33
2023/03/25 09:27:44;;;;;;;1.10;0.30;;;;;;;;;;5047912;28;20189;-32
2023/03/25 09:30:12;;;;;;;1.13;0.40;;;;;;;;;;5041843;28;20290;-35
2023/03/25 09:32:39;;;;;;;0.70;0.40;;;;;;;;;;5044647;28;20222;-39
2023/03/25 09:35:08;;;;;;;0.27;0.27;;;;;;;;;;5043611;28;20280;-36
2023/03/25 09:37:36;;;;;;;0.53;0.40;;;;;;;;;;5033017;28;20210;-39
2023/03/25 09:40:04;;;;;;;1.17;0.50;;;;;;;;;;5043133;28;20207;-38
2023/03/25 09:42:36;;;;;;;0.43;0.40;;;;;;;;;;5043846;28;20222;-44
2023/03/25 09:45:07;;;;;;;0.77;0.60;;;;;;;;;;5042603;28;20206;-36
2023/03/25 09:47:34;;;;;;;1.93;0.40;;;;;;;;;;5039655;28;20203;-37
2023/03/25 09:50:03;;;;;;;2.20;0.60;;;;;;;;;;5043379;28;20233;-35
2023/03/25 09:52:37;;;;;;;0.30;0.30;;;;;;;;;;5033474;28;20226;-33
2023/03/25 09:55:07;;;;;;;1.17;0.60;;;;;;;;;;5038156;28;20206;-38
2023/03/25 09:57:37;;;;;;;0.70;0.40;;;;;;;;;;5038181;28;20198;-36
2023/03/25 10:00:06;;;;;;;2.27;0.37;;;;;;;;;;5039401;28;20198;-32
2023/03/25 10:02:37;;;;;;;0.40;0.40;;;;;;;;;;5052471;28;20225;-38
2023/03/25 10:05:19;;;;;;;0.17;0.17;;;;;;;;;;5043263;28;20198;-39
2023/03/25 10:07:55;;;;;;;0.40;0.40;;;;;;;;;;5038494;28;20206;-38
2023/03/25 10:10:26;;;;;;;1.37;0.70;;;;;;;;;;5043734;28;20225;-38
2023/03/25 10:12:58;;;;;;;2.00;0.60;;;;;;;;;;5046746;28;20214;-40
2023/03/25 10:15:29;;;;;;;0.60;0.50;;;;;;;;;;5037782;28;20197;-32
2023/03/25 10:18:05;;;;;;;0.40;0.40;;;;;;;;;;5036792;28;20190;-37
2023/03/25 10:20:39;;;;;;;1.53;0.63;;;;;;;;;;5040826;28;20193;-39
2023/03/25 10:23:14;;;;;;;0.20;0.20;;;;;;;;;;5039134;28;20221;-36
2023/03/25 10:25:44;;;;;;;2.60;0.50;;;;;;;;;;5033843;28;20202;-35
2023/03/25 10:28:13;;;;;;;1.40;0.47;;;;;;;;;;5040124;28;20194;-40
2023/03/25 10:30:43;;;;;;;0.30;0.30;;;;;;;;;;5035487;28;20213;-37
2023/03/25 10:33:17;;;;;;;0.50;0.20;;;;;;;;;;5042635;28;20214;-36
2023/03/25 10:35:47;;;;;;;0.60;0.40;;;;;;;;;;5035526;28;20210;-32
2023/03/25 10:38:17;;;;;;;0.47;0.30;;;;;;;;;;5031965;28;20210;-41
2023/03/25 10:40:48;;;;;;;1.13;0.50;;;;;;;;;;5040838;28;20197;-36
2023/03/25 10:43:18;;;;;;;0.50;0.30;;;;;;;;;;5042559;28;20313;-41
2023/03/25 10:45:46;;;;;;;0.90;0.90;;;;;;;;;;5035772;28;20201;-40
2023/03/25 10:48:15;;;;;;;0.90;0.40;;;;;;;;;;5041292;28;20204;-40
2023/03/25 10:50:43;;;;;;;1.13;0.30;;;;;;;;;;5058053;28;20204;-34
2023/03/25 10:53:17;;;;;;;0.30;0.30;;;;;;;;;;5037232;28;20228;-35
2023/03/25 10:55:46;;;;;;;0.33;0.33;;;;;;;;;;5026235;28;20205;-34
2023/03/25 10:58:16;;;;;;;0.40;0.40;;;;;;;;;;5028395;28;20669;-35
2023/03/25 11:00:44;;;;;;;0.70;0.70;;;;;;;;;;5034026;28;20206;-34
2023/03/25 11:03:16;;;;;;;0.57;0.30;;;;;;;;;;5041041;28;20226;-37
2023/03/25 11:05:44;;;;;;;0.23;0.20;;;;;;;;;;5038931;28;20212;-40
2023/03/25 11:08:11;;;;;;;0.33;0.33;;;;;;;;;;5031395;28;20226;-34
2023/03/25 11:10:39;;;;;;;0.70;0.30;;;;;;;;;;5038637;28;20202;-33
2023/03/25 11:13:15;;;;;;;0.40;0.40;;;;;;;;;;5037362;28;20206;-35
2023/03/25 11:15:42;;;;;;;0.27;0.23;;;;;;;;;;5035020;28;20201;-39
2023/03/25 11:18:13;;;;;;;1.27;0.53;;;;;;;;;;5038956;28;20198;-38
2023/03/25 11:20:41;;;;;;;0.93;0.47;;;;;;;;;;5041270;28;20320;-38
2023/03/25 11:23:12;;;;;;;1.70;0.50;;;;;;;;;;5043233;28;20245;-37
2023/03/25 11:25:42;;;;;;;0.40;0.40;;;;;;;;;;5039466;28;20334;-42
2023/03/25 11:28:16;;;;;;;0.77;0.60;;;;;;;;;;5039821;28;20268;-33
2023/03/25 11:31:02;;;;;;;0.47;0.40;;;;;;;;;;5039531;28;20208;-38
2023/03/25 11:33:30;;;;;;;0.50;0.40;;;;;;;;;;5040635;28;20230;-37
2023/03/25 11:36:10;;;;;;;2.00;0.60;;;;;;;;;;5039074;28;20286;-40
2023/03/25 11:38:38;;;;;;;0.87;0.50;;;;;;;;;;5034843;28;20205;-37
2023/03/25 11:41:06;;;;;;;2.20;0.70;;;;;;;;;;5033184;28;20205;-35
2023/03/25 11:43:36;;;;;;;1.50;0.40;;;;;;;;;;5036709;28;20214;-41
2023/03/25 11:46:08;;;;;;;1.23;0.50;;;;;;;;;;5035426;28;20203;-35
2023/03/25 11:48:38;;;;;;;0.90;0.53;;;;;;;;;;5035072;28;20198;-38
2023/03/25 11:51:07;;;;;;;1.33;0.60;;;;;;;;;;5038252;28;20197;-33
2023/03/25 11:53:34;;;;;;;0.90;0.40;;;;;;;;;;5038657;28;20216;-31
2023/03/25 11:56:04;;;;;;;0.63;0.43;;;;;;;;;;5038224;28;20217;-31
2023/03/25 11:58:35;;;;;;;1.37;0.43;;;;;;;;;;5044684;28;20248;-34
2023/03/25 12:01:05;;;;;;;0.33;0.20;;;;;;;;;;5040552;28;20206;-36
2023/03/25 12:03:33;;;;;;;0.40;0.40;;;;;;;;;;5042679;28;20351;-41
2023/03/25 12:06:01;;;;;;;0.97;0.20;;;;;;;;;;5044149;28;20221;-38
2023/03/25 12:08:42;;;;;;;0.47;0.47;;;;;;;;;;5038427;28;20276;-41
2023/03/25 12:11:11;;;;;;;0.37;0.37;;;;;;;;;;5035821;28;20256;-38
2023/03/25 12:13:46;;;;;;;0.60;0.37;;;;;;;;;;5039163;28;20227;-34
2023/03/25 12:16:20;;;;;;;0.63;0.40;;;;;;;;;;5036669;28;20197;-36
2023/03/25 12:18:58;;;;;;;0.30;0.30;;;;;;;;;;5038485;28;20196;-35
2023/03/25 12:21:32;;;;;;;0.40;0.40;;;;;;;;;;5028740;28;20201;-37
2023/03/25 12:24:08;;;;;;;1.33;0.40;;;;;;;;;;5040338;28;20221;-38
2023/03/25 12:26:40;;;;;;;2.13;0.60;;;;;;;;;;5042944;28;20197;-35
2023/03/25 12:29:11;;;;;;;1.00;0.50;;;;;;;;;;5035146;28;20285;-35
2023/03/25 12:31:48;;;;;;;0.70;0.30;;;;;;;;;;5045977;28;20202;-32
2023/03/25 12:34:22;;;;;;;0.70;0.70;;;;;;;;;;5047829;28;20223;-41
2023/03/25 12:41:59;;;;;;;0.60;0.50;;;;;;;;;;5038126;28;20214;-27
2023/03/25 12:44:37;;;;;;;1.33;0.60;;;;;;;;;;5035232;28;20241;-31
2023/03/25 12:47:15;;;;;;;1.10;0.40;;;;;;;;;;5031098;28;20206;-29
2023/03/25 12:49:57;;;;;;;0.60;0.50;;;;;;;;;;5037779;28;20224;-30
2023/03/25 12:52:27;;;;;;;1.60;0.67;;;;;;;;;;5033091;28;20207;-30
2023/03/25 12:55:00;;;;;;;0.60;0.37;;;;;;;;;;5038032;28;20198;-27
2023/03/25 12:57:35;;;;;;;0.33;0.20;;;;;;;;;;5036394;28;20198;-32
2023/03/25 13:00:20;;;;;;;2.57;0.60;;;;;;;;;;5025673;28;20227;-28
2023/03/25 13:02:59;;;;;;;0.20;0.20;;;;;;;;;;5034767;28;20218;-30
2023/03/25 13:05:31;;;;;;;2.67;0.80;;;;;;;;;;5037736;28;20228;-29
2023/03/25 13:08:02;;;;;;;2.43;0.50;;;;;;;;;;5027769;28;20214;-31
2023/03/25 13:10:31;;;;;;;0.20;0.20;;;;;;;;;;5038044;28;20195;-30
2023/03/25 13:13:00;;;;;;;1.03;0.47;;;;;;;;;;5031601;28;20414;-30
2023/03/25 13:15:29;;;;;;;0.30;0.30;;;;;;;;;;5032746;28;20202;-30
2023/03/25 13:18:00;;;;;;;0.40;0.40;;;;;;;;;;5034286;28;20205;-28
2023/03/25 13:20:28;;;;;;;0.33;0.20;;;;;;;;;;5039189;28;20208;-31
2023/03/25 13:23:00;;;;;;;0.83;0.47;;;;;;;;;;5030602;28;20321;-31
2023/03/25 13:25:29;;;;;;;2.07;0.37;;;;;;;;;;5035951;28;20221;-32
2023/03/25 13:27:58;;;;;;;0.30;0.30;;;;;;;;;;5031718;28;20292;-30
2023/03/25 13:30:29;;;;;;;0.30;0.30;;;;;;;;;;5028234;28;20203;-27
2023/03/25 13:33:01;;;;;;;0.30;0.30;;;;;;;;;;5029742;28;20307;-27
2023/03/25 13:35:35;;;;;;;0.40;0.40;;;;;;;;;;5038147;28;20220;-32
2023/03/25 13:38:04;;;;;;;0.20;0.20;;;;;;;;;;5034625;28;20199;-27
2023/03/25 13:40:34;;;;;;;0.20;0.20;;;;;;;;;;5030022;28;20216;-29
2023/03/25 13:43:03;;;;;;;0.30;0.30;;;;;;;;;;5025974;28;20215;-32
2023/03/25 13:45:34;;;;;;;0.63;0.27;;;;;;;;;;5028370;28;20222;-27
2023/03/25 13:48:08;;;;;;;1.17;0.60;;;;;;;;;;5031830;28;20208;-30
2023/03/25 13:50:35;;;;;;;1.50;0.57;;;;;;;;;;5020074;28;20199;-28
2023/03/25 13:53:06;;;;;;;0.20;0.20;;;;;;;;;;5036447;28;20225;-31
2023/03/25 13:55:35;;;;;;;0.40;0.40;;;;;;;;;;5030215;28;20297;-30
2023/03/25 13:58:16;;;;;;;0.30;0.30;;;;;;;;;;5039028;28;20198;-28
2023/03/25 14:00:58;;;;;;;0.63;0.40;;;;;;;;;;5028574;28;20218;-29
2023/03/25 14:03:39;;;;;;;0.70;0.40;;;;;;;;;;5023522;28;20308;-27
2023/03/25 14:06:12;;;;;;;0.63;0.50;;;;;;;;;;5041025;28;20198;-30
2023/03/25 14:09:06;;;;;;;0.77;0.40;;;;;;;;;;5037232;28;20202;-26
2023/03/25 14:11:36;;;;;;;3.00;0.37;;;;;;;;;;5015237;28;20198;-30
2023/03/25 14:14:05;;;;;;;0.43;0.40;;;;;;;;;;5034990;28;20219;-29
2023/03/25 14:16:35;;;;;;;0.53;0.40;;;;;;;;;;5028306;28;20199;-26
2023/03/25 14:19:05;;;;;;;0.50;0.50;;;;;;;;;;5034793;28;20191;-30
2023/03/25 14:21:35;;;;;;;1.13;0.40;;;;;;;;;;5037027;28;20194;-27
2023/03/25 14:24:15;;;;;;;2.30;0.70;;;;;;;;;;5035606;28;20222;-29
2023/03/25 14:26:44;;;;;;;0.90;0.50;;;;;;;;;;5040586;28;20237;-29
2023/03/25 14:29:18;;;;;;;1.50;0.43;;;;;;;;;;5033265;28;20203;-31
2023/03/25 14:31:59;;;;;;;0.50;0.37;;;;;;;;;;5035784;28;20192;-28
2023/03/25 14:34:30;;;;;;;2.87;0.80;;;;;;;;;;5030802;28;20214;-31
2023/03/25 14:37:28;;;;;;;0.47;0.30;;;;;;;;;;5039927;28;20194;-30
2023/03/25 14:39:56;;;;;;;0.53;0.50;;;;;;;;;;5004591;28;20206;-29
2023/03/25 14:44:58;;;;;;;0.40;0.40;;;;;;;;;;5059358;28;20286;-41
2023/03/25 14:47:30;;;;;;;1.37;0.70;;;;;;;;;;5051140;28;20671;-35
2023/03/25 14:50:05;;;;;;;2.33;0.60;;;;;;;;;;5050994;28;20206;-38
2023/03/25 14:52:33;;;;;;;2.27;0.70;;;;;;;;;;5049089;28;20224;-36
2023/03/25 14:55:02;;;;;;;1.80;1.03;;;;;;;;;;5057026;28;20194;-33
2023/03/25 14:57:33;;;;;;;0.97;0.30;;;;;;;;;;5068347;28;20197;-36
2023/03/25 15:00:08;;;;;;;0.83;0.47;;;;;;;;;;5064961;28;20316;-36
2023/03/25 15:02:36;;;;;;;1.67;0.60;;;;;;;;;;5059207;28;20233;-35
2023/03/25 15:05:15;;;;;;;1.63;0.40;;;;;;;;;;5066010;28;20313;-38
2023/03/25 15:07:43;;;;;;;0.90;0.40;;;;;;;;;;5071498;28;20201;-38
2023/03/25 15:10:19;;;;;;;1.43;0.70;;;;;;;;;;5057115;28;20209;-32
2023/03/25 15:12:50;;;;;;;2.03;0.60;;;;;;;;;;5070361;28;20217;-33
2023/03/25 15:15:27;;;;;;;1.23;0.60;;;;;;;;;;5057836;28;20273;-30
2023/03/25 15:17:54;;;;;;;0.60;0.60;;;;;;;;;;5062200;28;20284;-36
2023/03/25 15:20:30;;;;;;;0.83;0.53;;;;;;;;;;5067150;28;20209;-37